Time;durP1;ratioP1;P1;durP2;ratioP2;P2;SDS_P1;SDS_P2;PMS_P1;PMS_P2;Temp;Humidity;BMP_temperature;BMP_pressure;BME280_temperature;BME280_humidity;BME280_pressure;Samples;Min_cycle;Max_cycle;Signal;HPM_P1;HPM_P2
2021/03/07 00:00:42;;;;;;;21.98;9.60;;;0.00;99.90;;;;;;5072932;28;20029;-57
2021/03/07 00:03:07;;;;;;;18.27;8.98;;;0.00;99.90;;;;;;5069593;28;20522;-57
2021/03/07 00:05:33;;;;;;;15.35;9.57;;;0.00;99.90;;;;;;5067203;28;20531;-55
2021/03/07 00:07:58;;;;;;;21.88;9.23;;;-0.10;99.90;;;;;;5086902;23;20099;-54
2021/03/07 00:10:24;;;;;;;18.20;10.43;;;-0.10;99.90;;;;;;5083703;28;20162;-52
2021/03/07 00:12:50;;;;;;;22.13;9.07;;;-0.10;99.90;;;;;;5088667;28;20135;-53
2021/03/07 00:15:17;;;;;;;21.83;9.50;;;-0.10;99.90;;;;;;5092142;28;20028;-52
2021/03/07 00:17:46;;;;;;;20.58;9.23;;;-0.10;99.90;;;;;;5091311;28;20058;-55
2021/03/07 00:20:15;;;;;;;19.83;9.68;;;0.00;99.90;;;;;;5094657;28;20107;-52
2021/03/07 00:22:41;;;;;;;23.25;10.63;;;0.10;99.90;;;;;;5092155;28;20040;-56
2021/03/07 00:25:09;;;;;;;26.05;10.38;;;0.10;99.90;;;;;;5092436;28;20038;-55
2021/03/07 00:27:36;;;;;;;22.95;9.57;;;0.10;99.90;;;;;;5088421;28;20040;-55
2021/03/07 00:30:04;;;;;;;17.75;7.95;;;0.10;99.90;;;;;;5089635;28;20484;-55
2021/03/07 00:32:29;;;;;;;16.08;9.15;;;-0.10;99.90;;;;;;5093588;28;20058;-55
2021/03/07 00:34:55;;;;;;;17.00;8.40;;;-0.20;99.90;;;;;;5093592;28;20032;-55
2021/03/07 00:37:20;;;;;;;19.05;9.52;;;-0.30;99.90;;;;;;5093007;28;20040;-54
2021/03/07 00:39:46;;;;;;;19.60;9.82;;;-0.40;99.90;;;;;;5092431;28;20031;-54
2021/03/07 00:42:11;;;;;;;16.67;9.57;;;-0.40;99.90;;;;;;5092463;28;20020;-50
2021/03/07 00:44:37;;;;;;;23.98;9.70;;;-0.40;99.90;;;;;;5093109;28;20039;-51
2021/03/07 00:47:03;;;;;;;26.23;10.77;;;-0.50;99.90;;;;;;5091567;28;20024;-53
2021/03/07 00:49:31;;;;;;;17.58;9.55;;;-0.50;99.90;;;;;;5090803;28;20145;-52
2021/03/07 00:51:57;;;;;;;26.52;12.10;;;-0.50;99.90;;;;;;5092668;28;20028;-54
2021/03/07 00:54:23;;;;;;;28.75;13.07;;;-0.60;99.90;;;;;;5091364;28;20055;-54
2021/03/07 00:56:48;;;;;;;25.83;11.73;;;-0.70;99.90;;;;;;5092240;28;20496;-53
2021/03/07 00:59:14;;;;;;;23.23;12.55;;;-0.60;99.90;;;;;;5090024;28;20052;-54
2021/03/07 01:01:40;;;;;;;29.88;12.55;;;-0.60;99.90;;;;;;5093165;28;20434;-54
2021/03/07 01:04:06;;;;;;;19.08;11.13;;;-0.50;99.90;;;;;;5090791;28;20016;-52
2021/03/07 01:06:32;;;;;;;21.42;11.98;;;-0.60;99.90;;;;;;5091496;28;20483;-54
2021/03/07 01:08:57;;;;;;;23.63;12.15;;;-0.60;99.90;;;;;;5092502;28;20391;-53
2021/03/07 01:11:24;;;;;;;32.17;12.82;;;-0.60;99.90;;;;;;5091582;28;20024;-51
2021/03/07 01:13:50;;;;;;;25.80;11.93;;;-0.70;99.90;;;;;;5089813;28;20038;-50
2021/03/07 01:16:16;;;;;;;22.77;12.63;;;-0.60;99.90;;;;;;5092529;28;20032;-51
2021/03/07 01:18:41;;;;;;;25.48;12.35;;;-0.60;99.90;;;;;;5091233;28;20040;-54
2021/03/07 01:21:07;;;;;;;26.42;11.32;;;-0.60;99.90;;;;;;5092705;28;20396;-52
2021/03/07 01:23:34;;;;;;;20.85;11.20;;;-0.50;99.90;;;;;;5091984;28;20502;-53
2021/03/07 01:26:00;;;;;;;23.20;10.63;;;-0.50;99.90;;;;;;5092501;28;20028;-55
2021/03/07 01:28:25;;;;;;;21.42;11.48;;;-0.50;99.90;;;;;;5089672;28;20085;-52
2021/03/07 01:30:51;;;;;;;28.13;12.32;;;-0.50;99.90;;;;;;5090029;28;20020;-54
2021/03/07 01:33:17;;;;;;;22.25;13.00;;;-0.50;99.90;;;;;;5091811;28;20504;-55
2021/03/07 01:35:42;;;;;;;23.35;12.05;;;-0.50;99.90;;;;;;5091552;28;20473;-51
2021/03/07 01:38:08;;;;;;;22.90;13.10;;;-0.50;99.90;;;;;;5088725;28;20028;-51
2021/03/07 01:40:39;;;;;;;26.67;12.05;;;-0.50;99.90;;;;;;5092019;28;20028;-53
2021/03/07 01:43:05;;;;;;;21.65;11.32;;;-0.60;99.90;;;;;;5093339;28;20028;-52
2021/03/07 01:45:33;;;;;;;25.52;12.48;;;-0.60;99.90;;;;;;5092309;28;20032;-51
2021/03/07 01:48:05;;;;;;;27.85;11.85;;;-0.70;99.90;;;;;;5091181;28;20058;-53
2021/03/07 01:50:33;;;;;;;25.38;11.27;;;-0.70;99.90;;;;;;5091867;28;20024;-51
2021/03/07 01:53:00;;;;;;;27.13;13.68;;;-0.60;99.90;;;;;;5091529;28;20090;-50
2021/03/07 01:55:29;;;;;;;24.73;12.13;;;-0.60;99.90;;;;;;5091529;28;20082;-55
2021/03/07 01:58:01;;;;;;;25.75;12.82;;;-0.60;99.90;;;;;;5091097;28;20498;-50
2021/03/07 02:00:27;;;;;;;24.00;12.15;;;-0.60;99.90;;;;;;5091883;28;20036;-54
2021/03/07 02:02:53;;;;;;;27.83;11.90;;;-0.70;99.90;;;;;;5089141;28;20024;-51
2021/03/07 02:05:20;;;;;;;25.13;13.20;;;-0.80;99.90;;;;;;5088396;28;20036;-51
2021/03/07 02:07:46;;;;;;;20.73;11.77;;;-0.90;99.90;;;;;;5093162;28;20664;-52
2021/03/07 02:10:21;;;;;;;25.95;12.60;;;-1.00;99.90;;;;;;5092882;28;20032;-51
2021/03/07 02:12:50;;;;;;;35.47;13.20;;;-1.10;99.90;;;;;;5090818;28;20031;-54
2021/03/07 02:15:17;;;;;;;28.88;12.77;;;-1.20;99.90;;;;;;5090480;28;20562;-51
2021/03/07 02:17:43;;;;;;;24.70;11.73;;;-1.30;99.90;;;;;;5090798;28;20028;-53
2021/03/07 02:20:12;;;;;;;34.75;13.02;;;-1.30;99.90;;;;;;5089589;28;20380;-51
2021/03/07 02:22:43;;;;;;;27.30;12.27;;;-1.30;99.90;;;;;;5091360;28;20055;-54
2021/03/07 02:25:11;;;;;;;26.23;11.80;;;-1.50;99.90;;;;;;5090621;28;20542;-52
2021/03/07 02:27:37;;;;;;;24.85;12.02;;;-1.50;99.90;;;;;;5091802;28;20414;-52
2021/03/07 02:30:05;;;;;;;32.88;12.57;;;-1.50;99.90;;;;;;5091303;28;20103;-53
2021/03/07 02:32:35;;;;;;;24.20;11.73;;;-1.50;99.90;;;;;;5092527;28;20028;-54
2021/03/07 02:35:14;;;;;;;24.40;11.40;;;-1.60;99.90;;;;;;5090493;28;20103;-50
2021/03/07 02:37:45;;;;;;;24.98;11.32;;;-1.50;99.90;;;;;;5090101;28;20024;-50
2021/03/07 02:40:12;;;;;;;25.42;12.25;;;-1.50;99.90;;;;;;5087856;28;20514;-52
2021/03/07 02:42:40;;;;;;;23.83;12.57;;;-1.50;99.90;;;;;;5091303;28;20024;-51
2021/03/07 02:45:08;;;;;;;23.17;10.90;;;-1.40;99.90;;;;;;5091015;28;20400;-51
2021/03/07 02:47:36;;;;;;;22.33;11.73;;;-1.40;99.90;;;;;;5087138;28;20033;-51
2021/03/07 02:50:08;;;;;;;21.25;12.95;;;-1.40;99.90;;;;;;5090514;28;20042;-52
2021/03/07 02:52:37;;;;;;;29.33;12.60;;;-1.40;99.90;;;;;;5085400;28;20484;-53
2021/03/07 02:55:04;;;;;;;23.00;12.50;;;-1.50;99.90;;;;;;5088818;28;20081;-53
2021/03/07 02:57:32;;;;;;;23.60;12.30;;;-1.50;99.90;;;;;;5090744;28;20052;-53
2021/03/07 02:59:58;;;;;;;22.35;11.48;;;-1.50;99.90;;;;;;5090652;28;20484;-55
2021/03/07 03:02:29;;;;;;;22.65;12.45;;;-1.50;99.90;;;;;;5090308;28;20035;-50
2021/03/07 03:04:58;;;;;;;24.75;12.80;;;-1.50;99.90;;;;;;5091446;28;20039;-54
2021/03/07 03:07:26;;;;;;;26.77;14.95;;;-1.60;99.90;;;;;;5090287;28;20028;-55
2021/03/07 03:09:53;;;;;;;22.85;13.40;;;-1.60;99.90;;;;;;5090023;28;20114;-51
2021/03/07 03:12:21;;;;;;;32.25;13.95;;;-1.70;99.90;;;;;;5089824;28;20028;-53
2021/03/07 03:14:47;;;;;;;25.45;12.52;;;-1.70;99.90;;;;;;5090900;28;20031;-55
2021/03/07 03:17:15;;;;;;;23.75;12.05;;;-1.70;99.90;;;;;;5087987;28;20035;-55
2021/03/07 03:19:43;;;;;;;24.98;12.65;;;-1.70;99.90;;;;;;5091855;28;20503;-54
2021/03/07 03:22:10;;;;;;;22.13;12.65;;;-1.60;99.90;;;;;;5083854;28;20073;-54
2021/03/07 03:24:37;;;;;;;29.95;13.15;;;-1.50;99.90;;;;;;5086473;28;20035;-51
2021/03/07 03:27:02;;;;;;;24.20;12.57;;;-1.50;99.90;;;;;;5090262;28;20395;-51
2021/03/07 03:29:32;;;;;;;21.90;12.85;;;-1.50;99.90;;;;;;5090768;28;20095;-51
2021/03/07 03:31:58;;;;;;;24.52;12.50;;;-1.60;99.90;;;;;;5089906;28;20061;-51
2021/03/07 03:34:23;;;;;;;25.23;12.85;;;-1.60;99.90;;;;;;5090294;28;20028;-53
2021/03/07 03:36:50;;;;;;;24.25;11.98;;;-1.70;99.90;;;;;;5090364;28;20103;-54
2021/03/07 03:39:23;;;;;;;28.00;13.07;;;-1.70;99.90;;;;;;5089971;28;20067;-54
2021/03/07 03:41:56;;;;;;;27.48;13.02;;;-1.70;99.90;;;;;;5087418;28;20066;-52
2021/03/07 03:44:25;;;;;;;27.27;13.05;;;-1.60;99.90;;;;;;5090845;28;20035;-53
2021/03/07 03:46:53;;;;;;;27.38;13.35;;;-1.60;99.90;;;;;;5089646;28;20484;-51
2021/03/07 03:49:36;;;;;;;23.60;13.18;;;-1.50;99.90;;;;;;5089755;28;20392;-52
2021/03/07 03:52:05;;;;;;;28.43;14.30;;;-1.50;99.90;;;;;;5094234;28;20056;-52
2021/03/07 03:54:49;;;;;;;23.63;12.52;;;-1.50;99.90;;;;;;5093596;28;20048;-51
2021/03/07 03:57:18;;;;;;;31.23;14.25;;;-1.80;99.90;;;;;;5073909;28;20089;-52
2021/03/07 03:59:46;;;;;;;21.92;11.60;;;-2.00;99.90;;;;;;5092464;28;20608;-52
2021/03/07 04:02:12;;;;;;;28.65;13.88;;;-2.10;99.90;;;;;;5093428;28;20066;-50
2021/03/07 04:04:39;;;;;;;28.50;14.40;;;-2.20;99.90;;;;;;5093869;28;20420;-51
2021/03/07 04:07:07;;;;;;;26.40;13.02;;;-2.20;99.90;;;;;;5092558;28;20028;-51
2021/03/07 04:09:34;;;;;;;27.80;13.90;;;-2.10;99.90;;;;;;5093048;28;20077;-52
2021/03/07 04:12:00;;;;;;;25.27;13.55;;;-1.90;99.90;;;;;;5091592;28;20020;-50
2021/03/07 04:14:26;;;;;;;27.92;13.15;;;-1.80;99.90;;;;;;5093435;28;20032;-51
2021/03/07 04:16:53;;;;;;;30.58;12.98;;;-1.90;99.90;;;;;;5092423;28;20032;-52
2021/03/07 04:19:19;;;;;;;25.35;13.52;;;-2.00;99.90;;;;;;5093987;28;20058;-51
2021/03/07 04:21:47;;;;;;;25.55;13.23;;;-2.00;99.90;;;;;;5093670;28;20042;-52
2021/03/07 04:24:12;;;;;;;35.55;15.20;;;-1.90;99.90;;;;;;5092890;28;20036;-50
2021/03/07 04:26:38;;;;;;;26.83;13.65;;;-1.90;99.90;;;;;;5094503;28;20446;-54
2021/03/07 04:29:04;;;;;;;27.38;13.02;;;-1.80;99.90;;;;;;5093071;28;20035;-51
2021/03/07 04:31:32;;;;;;;33.20;15.90;;;-1.80;99.90;;;;;;5086406;28;20518;-51
2021/03/07 04:33:58;;;;;;;34.85;14.85;;;-1.80;99.90;;;;;;5090710;28;20031;-52
2021/03/07 04:36:24;;;;;;;27.67;13.77;;;-1.70;99.90;;;;;;5092918;28;20085;-51
2021/03/07 04:38:50;;;;;;;26.45;14.63;;;-1.70;99.90;;;;;;5092682;28;20028;-53
2021/03/07 04:41:16;;;;;;;22.45;12.25;;;-1.80;99.90;;;;;;5093079;28;20098;-51
2021/03/07 04:43:47;;;;;;;24.42;13.48;;;-1.80;99.90;;;;;;5095883;28;20110;-52
2021/03/07 04:46:13;;;;;;;26.52;13.63;;;-1.90;99.90;;;;;;5090328;28;20036;-54
2021/03/07 04:48:39;;;;;;;27.35;13.73;;;-1.90;99.90;;;;;;5091826;28;20024;-54
2021/03/07 04:51:05;;;;;;;37.92;15.07;;;-2.10;99.90;;;;;;5092913;28;20028;-54
2021/03/07 04:53:31;;;;;;;32.72;15.32;;;-2.20;99.90;;;;;;5091143;28;20369;-51
2021/03/07 04:55:56;;;;;;;36.45;16.98;;;-2.30;99.90;;;;;;5073049;28;20070;-54
2021/03/07 04:58:22;;;;;;;27.42;13.50;;;-2.30;99.90;;;;;;5096513;28;20020;-52
2021/03/07 05:00:47;;;;;;;35.22;15.18;;;-2.40;99.90;;;;;;5092009;28;20203;-54
2021/03/07 05:03:13;;;;;;;35.83;15.13;;;-2.40;99.90;;;;;;5090356;28;20028;-53
2021/03/07 05:05:38;;;;;;;30.77;14.20;;;-2.50;99.90;;;;;;5092898;28;20365;-51
2021/03/07 05:08:06;;;;;;;37.47;14.90;;;-2.40;99.90;;;;;;5091167;28;20031;-55
2021/03/07 05:10:33;;;;;;;29.42;14.65;;;-2.40;99.90;;;;;;5092062;28;20024;-55
2021/03/07 05:12:58;;;;;;;26.13;14.63;;;-2.50;99.90;;;;;;5092316;28;20095;-51
2021/03/07 05:15:24;;;;;;;34.08;14.95;;;-2.50;99.90;;;;;;5095156;28;20032;-55
2021/03/07 05:17:49;;;;;;;29.75;14.57;;;-2.60;99.90;;;;;;5091069;28;20545;-54
2021/03/07 05:20:15;;;;;;;28.13;13.80;;;-2.60;99.90;;;;;;5091414;28;20054;-55
2021/03/07 05:22:41;;;;;;;34.33;15.90;;;-2.60;99.90;;;;;;5092417;28;20117;-51
2021/03/07 05:25:07;;;;;;;30.85;15.25;;;-2.60;99.90;;;;;;5091590;28;20162;-54
2021/03/07 05:27:32;;;;;;;28.10;13.95;;;-2.60;99.90;;;;;;5091729;28;20384;-55
2021/03/07 05:29:58;;;;;;;30.15;15.60;;;-2.70;99.90;;;;;;5092571;28;20024;-54
2021/03/07 05:32:24;;;;;;;32.40;15.73;;;-2.60;99.90;;;;;;5091188;28;20036;-51
2021/03/07 05:34:49;;;;;;;32.30;15.60;;;-2.70;99.90;;;;;;5091034;28;20020;-51
2021/03/07 05:37:15;;;;;;;37.03;16.10;;;-2.70;99.90;;;;;;5091094;28;20032;-52
2021/03/07 05:39:40;;;;;;;39.53;16.98;;;-2.70;99.90;;;;;;5091155;28;20028;-53
2021/03/07 05:42:08;;;;;;;38.95;15.15;;;-2.70;99.90;;;;;;5088313;28;20396;-53
2021/03/07 05:44:34;;;;;;;36.47;16.00;;;-2.60;99.90;;;;;;5090447;28;20059;-51
2021/03/07 05:46:59;;;;;;;32.42;15.27;;;-2.70;99.90;;;;;;5096201;28;20089;-54
2021/03/07 05:49:25;;;;;;;34.10;17.15;;;-2.70;99.90;;;;;;5091447;28;20459;-52
2021/03/07 05:51:51;;;;;;;35.45;15.02;;;-2.70;99.90;;;;;;5090342;28;20024;-54
2021/03/07 05:54:16;;;;;;;30.67;14.93;;;-2.70;99.90;;;;;;5090900;28;20030;-52
2021/03/07 05:56:47;;;;;;;35.53;15.65;;;-2.70;99.90;;;;;;5091473;28;20040;-52
2021/03/07 05:59:12;;;;;;;41.05;15.68;;;-2.70;99.90;;;;;;5088736;28;20031;-52
2021/03/07 06:01:38;;;;;;;35.60;16.63;;;-2.80;99.90;;;;;;5091351;28;20517;-52
2021/03/07 06:04:04;;;;;;;31.70;16.38;;;-2.80;99.90;;;;;;5091525;28;20023;-53
2021/03/07 06:06:33;;;;;;;37.17;17.60;;;-2.90;99.90;;;;;;5091516;28;20032;-52
2021/03/07 06:09:21;;;;;;;39.30;18.05;;;-2.90;99.90;;;;;;5091376;28;20036;-50
2021/03/07 06:11:48;;;;;;;42.72;18.95;;;-2.90;99.90;;;;;;5091551;28;20038;-50
2021/03/07 06:14:22;;;;;;;43.47;19.77;;;-2.90;99.90;;;;;;5088515;28;20524;-49
2021/03/07 06:17:17;;;;;;;40.00;18.45;;;-2.90;99.90;;;;;;5085931;28;20032;-50
2021/03/07 06:20:02;;;;;;;35.33;18.17;;;-2.90;99.90;;;;;;5069099;28;20031;-54
2021/03/07 06:22:28;;;;;;;41.15;18.30;;;-3.00;99.90;;;;;;5091078;28;20028;-53
2021/03/07 06:24:54;;;;;;;46.78;21.30;;;-3.00;99.90;;;;;;5090635;28;20024;-53
2021/03/07 06:27:21;;;;;;;45.60;20.17;;;-3.00;99.90;;;;;;5090807;28;20373;-51
2021/03/07 06:29:58;;;;;;;43.30;19.02;;;-2.90;99.90;;;;;;5091570;28;20060;-53
2021/03/07 06:32:25;;;;;;;42.08;18.45;;;-2.80;99.90;;;;;;5087885;28;20021;-52
2021/03/07 06:34:51;;;;;;;37.03;16.67;;;-2.70;99.90;;;;;;5085334;28;20379;-51
2021/03/07 06:37:17;;;;;;;43.83;18.88;;;-2.60;99.90;;;;;;5087856;28;20111;-51
2021/03/07 06:39:42;;;;;;;35.22;17.17;;;-2.60;99.90;;;;;;5090457;28;20036;-53
2021/03/07 06:42:10;;;;;;;33.15;18.60;;;-2.50;99.90;;;;;;5084568;28;20438;-55
2021/03/07 06:44:38;;;;;;;39.72;17.17;;;-2.40;99.90;;;;;;5088960;28;20494;-54
2021/03/07 06:47:12;;;;;;;36.25;17.05;;;-2.40;99.90;;;;;;5090918;28;20032;-51
2021/03/07 06:49:38;;;;;;;32.38;17.98;;;-2.30;99.90;;;;;;5087588;28;20042;-52
2021/03/07 06:52:17;;;;;;;34.35;16.75;;;-2.30;99.90;;;;;;5090511;28;20404;-52
2021/03/07 06:55:00;;;;;;;35.47;17.35;;;-2.20;99.90;;;;;;5090811;28;20112;-52
2021/03/07 06:57:29;;;;;;;44.40;18.23;;;-2.10;99.90;;;;;;5090833;28;20032;-55
2021/03/07 06:59:55;;;;;;;35.97;17.60;;;-2.10;99.90;;;;;;5092375;28;20028;-53
2021/03/07 07:02:21;;;;;;;40.30;18.33;;;-2.00;99.90;;;;;;5091513;28;20034;-50
2021/03/07 07:04:47;;;;;;;39.13;17.58;;;-2.00;99.90;;;;;;5086623;28;20066;-50
2021/03/07 07:07:16;;;;;;;39.17;19.17;;;-2.00;99.90;;;;;;5091072;28;20055;-51
2021/03/07 07:09:46;;;;;;;36.67;17.60;;;-2.00;99.90;;;;;;5086078;28;20036;-52
2021/03/07 07:12:18;;;;;;;39.72;17.52;;;-2.00;99.90;;;;;;5089534;28;20092;-53
2021/03/07 07:14:44;;;;;;;32.97;17.23;;;-1.90;99.90;;;;;;5090464;28;20043;-51
2021/03/07 07:17:13;;;;;;;37.53;18.42;;;-1.80;99.90;;;;;;5090244;28;20384;-51
2021/03/07 07:19:40;;;;;;;39.25;18.17;;;-1.70;99.90;;;;;;5090166;28;20076;-51
2021/03/07 07:22:07;;;;;;;34.72;17.20;;;-1.70;99.90;;;;;;5090557;28;20027;-54
2021/03/07 07:24:33;;;;;;;37.83;17.48;;;-1.60;99.90;;;;;;5090609;28;20115;-51
2021/03/07 07:26:59;;;;;;;35.53;20.05;;;-1.50;99.90;;;;;;5092076;28;20150;-54
2021/03/07 07:29:25;;;;;;;38.97;19.55;;;-1.40;99.90;;;;;;5094728;28;20028;-55
2021/03/07 07:32:00;;;;;;;34.58;20.00;;;-1.30;99.90;;;;;;5094474;28;20103;-53
2021/03/07 07:34:31;;;;;;;32.05;18.10;;;-1.30;99.90;;;;;;5093523;28;20028;-53
2021/03/07 07:37:02;;;;;;;36.75;19.98;;;-1.20;99.90;;;;;;5090358;28;20364;-52
2021/03/07 07:39:34;;;;;;;41.00;21.45;;;-1.10;99.90;;;;;;5092060;28;20052;-57
2021/03/07 07:42:26;;;;;;;36.15;19.67;;;-1.00;99.90;;;;;;5096167;28;20056;-56
2021/03/07 07:44:54;;;;;;;46.63;20.50;;;-0.90;99.90;;;;;;5092612;28;20039;-53
2021/03/07 07:47:20;;;;;;;39.35;19.58;;;-0.80;99.90;;;;;;5094148;28;20127;-51
2021/03/07 07:49:54;;;;;;;39.17;21.02;;;-0.80;99.90;;;;;;5094946;28;20042;-53
2021/03/07 07:52:34;;;;;;;37.72;20.52;;;-0.70;99.90;;;;;;5091096;28;20033;-50
2021/03/07 07:55:12;;;;;;;43.67;19.98;;;-0.60;99.90;;;;;;5095635;28;20241;-51
2021/03/07 07:57:40;;;;;;;47.42;21.65;;;-0.60;99.90;;;;;;5093473;28;20388;-51
2021/03/07 08:00:46;;;;;;;42.65;21.00;;;-0.50;99.90;;;;;;5097275;28;20043;-53
2021/03/07 08:03:29;;;;;;;38.38;21.40;;;-0.30;99.90;;;;;;5091020;28;20028;-53
2021/03/07 08:05:55;;;;;;;40.33;20.35;;;-0.30;99.90;;;;;;5092383;28;20031;-52
2021/03/07 08:08:33;;;;;;;35.17;21.48;;;-0.20;99.90;;;;;;5092209;28;20031;-52
2021/03/07 08:10:59;;;;;;;44.63;21.85;;;-0.10;99.90;;;;;;5093463;28;20056;-51
2021/03/07 08:13:27;;;;;;;42.35;22.70;;;0.00;99.90;;;;;;5093182;28;20388;-55
2021/03/07 08:15:55;;;;;;;51.05;22.73;;;0.10;99.90;;;;;;5089424;28;20073;-52
2021/03/07 08:18:22;;;;;;;49.25;22.58;;;0.20;99.90;;;;;;5092420;28;20429;-51
2021/03/07 08:20:47;;;;;;;35.75;20.95;;;0.30;99.90;;;;;;5094977;28;20039;-52
2021/03/07 08:23:15;;;;;;;39.15;21.67;;;0.40;99.90;;;;;;5092870;28;20029;-55
2021/03/07 08:25:49;;;;;;;41.78;20.33;;;0.50;99.90;;;;;;5093480;28;20053;-55
2021/03/07 08:28:30;;;;;;;50.92;21.05;;;0.60;99.90;;;;;;5093392;28;20513;-52
2021/03/07 08:30:59;;;;;;;38.85;19.70;;;0.70;99.90;;;;;;5090308;28;20017;-52
2021/03/07 08:33:38;;;;;;;38.80;20.92;;;0.80;99.90;;;;;;5094036;28;20024;-48
2021/03/07 08:36:21;;;;;;;43.25;20.90;;;0.80;99.90;;;;;;5094191;28;20048;-48
2021/03/07 08:38:52;;;;;;;39.95;19.63;;;0.90;99.90;;;;;;5090101;28;20028;-48
2021/03/07 08:41:31;;;;;;;36.92;20.63;;;1.00;99.90;;;;;;5096446;28;20024;-48
2021/03/07 08:43:58;;;;;;;47.00;22.67;;;1.10;99.90;;;;;;5087165;28;20103;-48
2021/03/07 08:46:36;;;;;;;35.80;20.17;;;1.20;99.90;;;;;;5088429;28;20034;-49
2021/03/07 08:49:10;;;;;;;38.17;19.95;;;1.30;99.90;;;;;;5092052;28;20031;-51
2021/03/07 08:51:37;;;;;;;32.35;15.57;;;1.40;99.90;;;;;;5086415;28;20024;-49
2021/03/07 08:54:11;;;;;;;36.63;19.33;;;1.50;99.90;;;;;;5091761;28;20032;-49
2021/03/07 08:56:38;;;;;;;32.77;19.67;;;1.70;99.90;;;;;;5089755;28;20031;-48
2021/03/07 08:59:07;;;;;;;42.67;20.20;;;1.80;99.90;;;;;;5085593;28;20513;-48
2021/03/07 09:01:33;;;;;;;42.13;20.20;;;1.80;99.90;;;;;;5086577;28;20040;-52
2021/03/07 09:04:01;;;;;;;34.00;18.38;;;2.00;99.90;;;;;;5072658;28;20081;-48
2021/03/07 09:06:29;;;;;;;38.92;19.50;;;2.10;99.90;;;;;;5090614;28;20028;-49
2021/03/07 09:09:02;;;;;;;33.83;19.63;;;2.20;99.90;;;;;;5089818;28;20031;-48
2021/03/07 09:11:28;;;;;;;33.40;18.67;;;2.30;99.90;;;;;;5091568;28;20059;-48
2021/03/07 09:13:54;;;;;;;31.90;18.65;;;2.40;99.90;;;;;;5090732;28;20062;-49
2021/03/07 09:16:19;;;;;;;29.60;18.83;;;2.40;99.90;;;;;;5090099;28;20774;-49
2021/03/07 09:18:45;;;;;;;33.00;18.00;;;2.60;99.90;;;;;;5090380;28;20024;-49
2021/03/07 09:21:12;;;;;;;41.95;19.13;;;2.70;99.90;;;;;;5091197;28;20032;-48
2021/03/07 09:23:42;;;;;;;28.30;16.83;;;2.80;99.90;;;;;;5093588;28;20106;-50
2021/03/07 09:26:12;;;;;;;30.92;16.83;;;2.80;99.90;;;;;;5092219;28;20016;-48
2021/03/07 09:28:52;;;;;;;31.15;17.83;;;3.00;99.90;;;;;;5091318;28;20032;-52
2021/03/07 09:31:23;;;;;;;31.20;16.85;;;3.10;99.90;;;;;;5090932;28;20499;-51
2021/03/07 09:33:54;;;;;;;30.85;16.35;;;3.30;99.90;;;;;;5089825;28;20089;-51
2021/03/07 09:36:21;;;;;;;30.48;17.80;;;3.50;99.90;;;;;;5091164;28;20078;-49
2021/03/07 09:39:02;;;;;;;30.67;17.33;;;3.70;99.90;;;;;;5089170;28;20024;-52
2021/03/07 09:41:33;;;;;;;30.35;16.35;;;3.80;99.90;;;;;;5089510;28;20487;-49
2021/03/07 09:44:05;;;;;;;30.55;17.20;;;3.90;99.90;;;;;;5089426;28;20321;-51
2021/03/07 09:46:32;;;;;;;26.70;15.27;;;3.90;99.90;;;;;;5090473;28;20028;-52
2021/03/07 09:49:01;;;;;;;32.78;16.77;;;4.10;99.90;;;;;;5088682;28;20077;-49
2021/03/07 09:51:29;;;;;;;27.20;15.20;;;4.30;99.90;;;;;;5068190;28;20080;-48
2021/03/07 09:53:55;;;;;;;30.73;16.23;;;4.40;99.90;;;;;;5089123;28;20104;-49
2021/03/07 09:56:34;;;;;;;22.65;13.93;;;4.50;99.90;;;;;;5091208;28;20091;-49
2021/03/07 09:59:14;;;;;;;27.13;14.18;;;4.60;99.90;;;;;;5087875;28;20027;-49
2021/03/07 10:01:51;;;;;;;24.58;13.70;;;4.70;99.90;;;;;;5085222;28;20065;-51
2021/03/07 10:04:32;;;;;;;24.50;14.48;;;4.80;99.90;;;;;;5089611;28;20028;-51
2021/03/07 10:07:00;;;;;;;24.83;13.52;;;5.10;99.90;;;;;;5087906;28;20032;-49
2021/03/07 10:09:25;;;;;;;22.35;12.82;;;5.20;99.90;;;;;;5088805;28;20047;-50
2021/03/07 10:12:00;;;;;;;28.27;14.13;;;5.20;99.90;;;;;;5091161;28;20464;-49
2021/03/07 10:14:28;;;;;;;26.17;12.80;;;5.40;99.90;;;;;;5089828;28;20126;-49
2021/03/07 10:16:54;;;;;;;25.40;13.18;;;5.40;99.90;;;;;;5085252;28;20055;-49
2021/03/07 10:19:20;;;;;;;24.92;11.63;;;5.50;99.90;;;;;;5083530;28;20028;-50
2021/03/07 10:21:47;;;;;;;21.63;10.93;;;5.60;99.90;;;;;;5083674;28;20482;-49
2021/03/07 10:24:17;;;;;;;23.77;11.77;;;5.70;99.90;;;;;;5085390;28;20051;-49
2021/03/07 10:26:47;;;;;;;17.38;11.27;;;5.90;99.90;;;;;;5087613;28;20043;-49
2021/03/07 10:29:24;;;;;;;21.40;11.98;;;5.90;99.90;;;;;;5088179;28;20028;-51
2021/03/07 10:32:05;;;;;;;20.20;11.02;;;5.80;99.90;;;;;;5089063;28;20085;-48
2021/03/07 10:34:48;;;;;;;21.77;10.88;;;5.70;99.90;;;;;;5084732;28;20031;-47
2021/03/07 10:37:33;;;;;;;17.40;10.40;;;5.90;99.90;;;;;;5088725;28;20024;-49
2021/03/07 10:39:58;;;;;;;17.67;9.77;;;6.10;99.90;;;;;;5084139;28;20036;-49
2021/03/07 10:42:32;;;;;;;17.38;8.90;;;6.10;99.90;;;;;;5088821;28;20559;-48
2021/03/07 10:45:18;;;;;;;17.85;8.57;;;6.30;99.90;;;;;;5087282;28;20063;-49
2021/03/07 10:48:11;;;;;;;16.27;8.77;;;6.40;99.90;;;;;;5087197;28;20028;-49
2021/03/07 10:50:40;;;;;;;19.35;9.95;;;6.60;99.90;;;;;;5074509;28;20074;-49
2021/03/07 10:53:06;;;;;;;18.27;9.85;;;6.60;99.90;;;;;;5086119;28;20046;-52
2021/03/07 10:55:32;;;;;;;15.65;10.18;;;6.60;99.90;;;;;;5088378;28;20034;-53
2021/03/07 10:57:58;;;;;;;16.60;9.38;;;6.60;99.90;;;;;;5088745;28;20107;-52
2021/03/07 11:00:24;;;;;;;20.25;11.75;;;6.70;99.90;;;;;;5094515;28;20099;-52
2021/03/07 11:02:52;;;;;;;20.70;10.50;;;6.80;99.90;;;;;;5073876;28;20534;-52
2021/03/07 11:05:18;;;;;;;23.05;11.45;;;6.80;99.90;;;;;;5092331;28;20115;-51
2021/03/07 11:07:45;;;;;;;23.05;11.23;;;6.80;99.90;;;;;;5096524;28;20510;-51
2021/03/07 11:10:13;;;;;;;20.15;11.35;;;7.00;99.90;;;;;;5094088;28;20038;-50
2021/03/07 11:12:39;;;;;;;26.50;12.60;;;7.10;99.90;;;;;;5090931;28;20020;-50
2021/03/07 11:15:07;;;;;;;23.30;11.55;;;7.30;99.90;;;;;;5089290;28;20500;-50
2021/03/07 11:17:33;;;;;;;21.48;11.45;;;7.30;99.90;;;;;;5091327;28;20043;-50
2021/03/07 11:19:59;;;;;;;23.38;12.10;;;7.20;99.90;;;;;;5093324;28;20085;-50
2021/03/07 11:22:25;;;;;;;28.60;11.55;;;7.20;99.90;;;;;;5091154;28;20024;-49
2021/03/07 11:24:51;;;;;;;24.35;11.80;;;7.40;99.90;;;;;;5091782;28;20020;-50
2021/03/07 11:27:17;;;;;;;18.45;10.75;;;7.70;99.90;;;;;;5091879;28;20076;-50
2021/03/07 11:29:43;;;;;;;21.48;11.65;;;7.80;99.90;;;;;;5090729;28;20020;-48
2021/03/07 11:32:09;;;;;;;20.60;11.32;;;7.90;99.90;;;;;;5093016;28;20393;-49
2021/03/07 11:34:35;;;;;;;22.60;11.18;;;7.90;99.90;;;;;;5087857;28;20027;-51
2021/03/07 11:37:01;;;;;;;28.55;12.75;;;8.00;99.90;;;;;;5089807;28;20028;-49
2021/03/07 11:39:26;;;;;;;20.52;10.95;;;8.20;99.90;;;;;;5087599;28;20028;-52
2021/03/07 11:41:52;;;;;;;22.52;11.45;;;8.00;99.90;;;;;;5089014;28;20040;-49
2021/03/07 11:44:18;;;;;;;20.10;11.20;;;7.90;99.90;;;;;;5089681;28;20032;-49
2021/03/07 11:46:43;;;;;;;20.27;12.10;;;8.20;99.90;;;;;;5089512;28;20024;-50
2021/03/07 11:49:09;;;;;;;22.05;11.45;;;8.10;99.90;;;;;;5090371;28;20058;-51
2021/03/07 11:51:35;;;;;;;18.65;10.48;;;8.20;99.90;;;;;;5092073;28;20023;-52
2021/03/07 11:54:02;;;;;;;17.80;10.38;;;8.40;99.90;;;;;;5096996;28;20028;-49
2021/03/07 11:56:28;;;;;;;16.85;9.85;;;8.30;99.90;;;;;;5090917;28;20016;-50
2021/03/07 11:58:53;;;;;;;16.70;9.80;;;8.20;99.90;;;;;;5090670;28;20478;-49
2021/03/07 12:01:19;;;;;;;18.80;10.88;;;8.30;99.90;;;;;;5090708;28;20043;-49
2021/03/07 12:03:45;;;;;;;17.27;10.20;;;8.50;99.90;;;;;;5092117;28;20017;-50
2021/03/07 12:06:10;;;;;;;18.98;11.07;;;8.50;99.90;;;;;;5092646;28;20027;-49
2021/03/07 12:08:36;;;;;;;19.40;10.60;;;8.80;99.90;;;;;;5091241;28;20032;-50
2021/03/07 12:11:01;;;;;;;21.10;10.70;;;8.80;99.90;;;;;;5087756;28;20073;-48
2021/03/07 12:13:27;;;;;;;19.85;9.80;;;8.60;99.90;;;;;;5092063;28;20028;-49
2021/03/07 12:15:53;;;;;;;19.17;9.57;;;8.80;99.90;;;;;;5088172;28;20020;-52
2021/03/07 12:18:18;;;;;;;20.88;10.63;;;8.90;99.90;;;;;;5091628;28;20579;-52
2021/03/07 12:20:44;;;;;;;19.27;9.90;;;9.10;99.90;;;;;;5090158;28;20588;-52
2021/03/07 12:23:09;;;;;;;15.27;9.80;;;9.00;99.90;;;;;;5091399;28;20039;-49
2021/03/07 12:25:35;;;;;;;20.30;11.50;;;9.20;99.90;;;;;;5089892;28;20114;-51
2021/03/07 12:28:01;;;;;;;23.77;12.32;;;9.10;99.90;;;;;;5088934;28;20054;-51
2021/03/07 12:30:27;;;;;;;23.15;10.70;;;9.00;99.90;;;;;;5089890;28;20031;-51
2021/03/07 12:32:52;;;;;;;21.10;11.65;;;9.20;99.90;;;;;;5090838;28;20039;-49
2021/03/07 12:35:18;;;;;;;21.83;12.88;;;9.20;99.90;;;;;;5088396;28;20028;-53
2021/03/07 12:37:44;;;;;;;19.60;12.38;;;9.50;99.90;;;;;;5090844;28;20114;-50